sensor_id;sensor_type;location;lat;lon;timestamp;noise_LAeq;noise_LA_min;noise_LA_max;noise_LA01;noise_LA95
76767;Laerm;65707;52.362;6.588;2023-01-01T00:01:37;89.05;51.91;106.32;;
76767;Laerm;65707;52.362;6.588;2023-01-01T00:04:12;81.42;49.79;103.26;;
76767;Laerm;65707;52.362;6.588;2023-01-01T00:06:40;74.92;45.45;98.73;;
76767;Laerm;65707;52.362;6.588;2023-01-01T00:09:07;71.74;46.43;94.44;;
76767;Laerm;65707;52.362;6.588;2023-01-01T00:11:51;70.35;47.26;94.25;;
76767;Laerm;65707;52.362;6.588;2023-01-01T00:14:18;79.84;46.34;100.47;;
76767;Laerm;65707;52.362;6.588;2023-01-01T00:16:45;66.70;45.50;95.30;;
76767;Laerm;65707;52.362;6.588;2023-01-01T00:19:13;78.48;48.45;98.78;;
76767;Laerm;65707;52.362;6.588;2023-01-01T00:21:40;73.84;44.86;97.22;;
76767;Laerm;65707;52.362;6.588;2023-01-01T00:24:07;65.21;44.28;92.81;;
76767;Laerm;65707;52.362;6.588;2023-01-01T00:26:34;56.37;42.73;81.17;;
76767;Laerm;65707;52.362;6.588;2023-01-01T00:29:02;63.61;42.93;91.31;;
76767;Laerm;65707;52.362;6.588;2023-01-01T00:31:29;61.21;42.38;81.69;;
76767;Laerm;65707;52.362;6.588;2023-01-01T00:33:56;71.25;44.49;100.15;;
76767;Laerm;65707;52.362;6.588;2023-01-01T00:36:26;63.34;44.08;86.63;;
76767;Laerm;65707;52.362;6.588;2023-01-01T00:38:54;60.50;43.36;88.94;;
76767;Laerm;65707;52.362;6.588;2023-01-01T00:41:22;61.28;42.37;85.57;;
76767;Laerm;65707;52.362;6.588;2023-01-01T00:43:49;62.65;41.65;84.58;;
76767;Laerm;65707;52.362;6.588;2023-01-01T00:46:16;56.40;40.85;81.54;;
76767;Laerm;65707;52.362;6.588;2023-01-01T00:48:43;66.41;41.19;96.32;;
76767;Laerm;65707;52.362;6.588;2023-01-01T00:51:11;60.59;40.45;88.38;;
76767;Laerm;65707;52.362;6.588;2023-01-01T00:53:39;60.03;42.29;92.13;;
76767;Laerm;65707;52.362;6.588;2023-01-01T00:56:06;66.04;41.24;93.13;;
76767;Laerm;65707;52.362;6.588;2023-01-01T00:58:33;62.50;42.45;83.92;;
76767;Laerm;65707;52.362;6.588;2023-01-01T01:01:00;54.09;42.99;77.58;;
76767;Laerm;65707;52.362;6.588;2023-01-01T01:03:27;55.24;40.89;84.72;;
76767;Laerm;65707;52.362;6.588;2023-01-01T01:05:56;52.84;40.91;79.31;;
76767;Laerm;65707;52.362;6.588;2023-01-01T01:08:24;61.05;40.39;84.41;;
76767;Laerm;65707;52.362;6.588;2023-01-01T01:10:52;55.10;40.09;74.51;;
76767;Laerm;65707;52.362;6.588;2023-01-01T01:13:20;59.64;40.14;79.33;;
76767;Laerm;65707;52.362;6.588;2023-01-01T01:15:47;59.07;41.21;83.33;;
76767;Laerm;65707;52.362;6.588;2023-01-01T01:18:14;57.54;39.53;80.66;;
76767;Laerm;65707;52.362;6.588;2023-01-01T01:20:49;58.01;40.37;84.00;;
76767;Laerm;65707;52.362;6.588;2023-01-01T01:23:16;59.75;39.92;90.35;;
76767;Laerm;65707;52.362;6.588;2023-01-01T01:25:43;55.67;39.43;84.78;;
76767;Laerm;65707;52.362;6.588;2023-01-01T01:28:11;54.34;38.50;82.30;;
76767;Laerm;65707;52.362;6.588;2023-01-01T01:30:38;62.67;38.81;92.76;;
76767;Laerm;65707;52.362;6.588;2023-01-01T01:33:05;60.90;38.43;89.63;;
76767;Laerm;65707;52.362;6.588;2023-01-01T01:35:32;59.50;38.79;85.73;;
76767;Laerm;65707;52.362;6.588;2023-01-01T01:37:59;77.14;38.45;104.91;;
76767;Laerm;65707;52.362;6.588;2023-01-01T01:40:26;58.47;38.72;82.26;;
76767;Laerm;65707;52.362;6.588;2023-01-01T01:42:53;51.31;39.84;76.52;;
76767;Laerm;65707;52.362;6.588;2023-01-01T01:45:21;70.98;41.33;99.79;;
76767;Laerm;65707;52.362;6.588;2023-01-01T01:47:50;72.50;40.62;99.99;;
76767;Laerm;65707;52.362;6.588;2023-01-01T01:50:24;56.69;39.36;79.60;;
76767;Laerm;65707;52.362;6.588;2023-01-01T01:53:03;62.19;42.53;83.93;;
76767;Laerm;65707;52.362;6.588;2023-01-01T01:55:33;57.97;39.72;79.15;;
76767;Laerm;65707;52.362;6.588;2023-01-01T01:58:02;59.10;39.87;80.81;;
76767;Laerm;65707;52.362;6.588;2023-01-01T02:00:31;62.40;40.99;82.79;;
76767;Laerm;65707;52.362;6.588;2023-01-01T02:03:03;57.97;40.07;85.33;;
76767;Laerm;65707;52.362;6.588;2023-01-01T02:05:33;51.72;39.00;73.57;;
76767;Laerm;65707;52.362;6.588;2023-01-01T02:08:03;48.47;38.42;75.04;;
76767;Laerm;65707;52.362;6.588;2023-01-01T02:10:30;54.91;38.88;76.84;;
76767;Laerm;65707;52.362;6.588;2023-01-01T02:12:58;53.77;39.32;76.94;;
76767;Laerm;65707;52.362;6.588;2023-01-01T02:15:33;61.24;40.24;85.22;;
76767;Laerm;65707;52.362;6.588;2023-01-01T02:18:07;57.14;40.36;80.21;;
76767;Laerm;65707;52.362;6.588;2023-01-01T02:20:47;65.48;39.99;93.51;;
76767;Laerm;65707;52.362;6.588;2023-01-01T02:23:48;57.13;39.84;81.67;;
76767;Laerm;65707;52.362;6.588;2023-01-01T02:26:41;53.54;37.40;78.50;;
76767;Laerm;65707;52.362;6.588;2023-01-01T02:29:27;47.04;37.34;68.79;;
76767;Laerm;65707;52.362;6.588;2023-01-01T02:32:01;57.81;38.02;88.65;;
76767;Laerm;65707;52.362;6.588;2023-01-01T02:34:37;59.45;38.01;87.36;;
76767;Laerm;65707;52.362;6.588;2023-01-01T02:37:09;58.84;39.96;89.96;;
76767;Laerm;65707;52.362;6.588;2023-01-01T02:39:44;55.88;39.68;79.86;;
76767;Laerm;65707;52.362;6.588;2023-01-01T02:42:14;55.60;37.00;84.50;;
76767;Laerm;65707;52.362;6.588;2023-01-01T02:44:48;58.35;37.81;79.62;;
76767;Laerm;65707;52.362;6.588;2023-01-01T02:47:18;53.81;37.51;79.45;;
76767;Laerm;65707;52.362;6.588;2023-01-01T02:49:54;49.37;36.83;74.19;;
76767;Laerm;65707;52.362;6.588;2023-01-01T02:52:46;48.42;37.77;72.73;;
76767;Laerm;65707;52.362;6.588;2023-01-01T02:55:33;46.84;36.67;76.12;;
76767;Laerm;65707;52.362;6.588;2023-01-01T02:58:12;48.52;36.58;72.47;;
76767;Laerm;65707;52.362;6.588;2023-01-01T03:01:09;45.71;36.58;67.51;;
76767;Laerm;65707;52.362;6.588;2023-01-01T03:03:46;62.61;37.63;85.70;;
76767;Laerm;65707;52.362;6.588;2023-01-01T03:06:28;58.70;40.00;82.78;;
76767;Laerm;65707;52.362;6.588;2023-01-01T03:09:10;60.03;39.11;83.95;;
76767;Laerm;65707;52.362;6.588;2023-01-01T03:11:49;59.27;41.36;84.35;;
76767;Laerm;65707;52.362;6.588;2023-01-01T03:14:24;54.58;38.57;80.55;;
76767;Laerm;65707;52.362;6.588;2023-01-01T03:17:05;53.85;38.91;76.68;;
76767;Laerm;65707;52.362;6.588;2023-01-01T03:19:39;46.99;37.90;65.36;;
76767;Laerm;65707;52.362;6.588;2023-01-01T03:22:11;53.00;38.10;85.93;;
76767;Laerm;65707;52.362;6.588;2023-01-01T03:24:44;49.84;36.99;73.14;;
76767;Laerm;65707;52.362;6.588;2023-01-01T03:27:17;59.35;36.97;84.15;;
76767;Laerm;65707;52.362;6.588;2023-01-01T03:29:47;62.94;39.21;88.65;;
76767;Laerm;65707;52.362;6.588;2023-01-01T03:32:25;55.10;38.83;82.98;;
76767;Laerm;65707;52.362;6.588;2023-01-01T03:35:16;54.73;39.22;82.44;;
76767;Laerm;65707;52.362;6.588;2023-01-01T03:37:48;57.44;39.97;77.39;;
76767;Laerm;65707;52.362;6.588;2023-01-01T03:40:18;51.25;39.43;71.36;;
76767;Laerm;65707;52.362;6.588;2023-01-01T03:42:51;56.56;39.72;77.23;;
76767;Laerm;65707;52.362;6.588;2023-01-01T03:45:26;51.85;38.35;78.87;;
76767;Laerm;65707;52.362;6.588;2023-01-01T03:47:57;59.68;38.81;81.70;;
76767;Laerm;65707;52.362;6.588;2023-01-01T03:50:37;49.76;37.05;76.44;;
76767;Laerm;65707;52.362;6.588;2023-01-01T03:53:16;50.27;37.07;80.01;;
76767;Laerm;65707;52.362;6.588;2023-01-01T03:55:54;56.86;38.06;80.45;;
76767;Laerm;65707;52.362;6.588;2023-01-01T03:58:31;59.62;37.04;82.06;;
76767;Laerm;65707;52.362;6.588;2023-01-01T04:01:07;57.53;39.51;78.67;;
76767;Laerm;65707;52.362;6.588;2023-01-01T04:03:37;56.39;38.87;75.89;;
76767;Laerm;65707;52.362;6.588;2023-01-01T04:06:06;55.48;39.88;74.49;;
76767;Laerm;65707;52.362;6.588;2023-01-01T04:08:35;60.16;38.82;77.93;;
76767;Laerm;65707;52.362;6.588;2023-01-01T04:11:06;60.30;38.02;82.63;;
76767;Laerm;65707;52.362;6.588;2023-01-01T04:13:54;54.74;38.87;77.91;;
76767;Laerm;65707;52.362;6.588;2023-01-01T04:16:21;64.73;38.98;89.50;;
76767;Laerm;65707;52.362;6.588;2023-01-01T04:18:49;62.00;40.80;82.51;;
76767;Laerm;65707;52.362;6.588;2023-01-01T04:21:16;51.95;39.96;73.60;;
76767;Laerm;65707;52.362;6.588;2023-01-01T04:23:43;48.97;37.36;71.70;;
76767;Laerm;65707;52.362;6.588;2023-01-01T04:26:12;48.96;37.76;70.24;;
76767;Laerm;65707;52.362;6.588;2023-01-01T04:28:39;57.74;40.50;77.34;;
76767;Laerm;65707;52.362;6.588;2023-01-01T04:31:07;58.76;36.50;86.53;;
76767;Laerm;65707;52.362;6.588;2023-01-01T04:33:34;47.53;36.48;67.89;;
76767;Laerm;65707;52.362;6.588;2023-01-01T04:36:07;54.27;39.14;75.95;;
76767;Laerm;65707;52.362;6.588;2023-01-01T04:38:36;48.20;35.92;74.11;;
76767;Laerm;65707;52.362;6.588;2023-01-01T04:41:04;46.14;35.62;66.67;;
76767;Laerm;65707;52.362;6.588;2023-01-01T04:43:31;49.66;34.93;73.11;;
76767;Laerm;65707;52.362;6.588;2023-01-01T04:45:59;48.23;34.69;69.45;;
76767;Laerm;65707;52.362;6.588;2023-01-01T04:48:27;45.67;33.34;76.10;;
76767;Laerm;65707;52.362;6.588;2023-01-01T04:50:56;39.64;33.35;62.58;;
76767;Laerm;65707;52.362;6.588;2023-01-01T04:53:28;38.78;33.61;60.47;;
76767;Laerm;65707;52.362;6.588;2023-01-01T04:55:55;51.35;33.39;80.66;;
76767;Laerm;65707;52.362;6.588;2023-01-01T04:58:22;57.14;34.00;89.17;;
76767;Laerm;65707;52.362;6.588;2023-01-01T05:00:49;47.53;34.23;73.49;;
76767;Laerm;65707;52.362;6.588;2023-01-01T05:03:17;42.01;34.35;66.77;;
76767;Laerm;65707;52.362;6.588;2023-01-01T05:05:43;41.35;34.79;57.28;;
76767;Laerm;65707;52.362;6.588;2023-01-01T05:08:11;42.02;34.54;66.27;;
76767;Laerm;65707;52.362;6.588;2023-01-01T05:10:39;47.06;35.21;70.90;;
76767;Laerm;65707;52.362;6.588;2023-01-01T05:13:07;52.92;37.28;81.97;;
76767;Laerm;65707;52.362;6.588;2023-01-01T05:15:35;47.85;36.82;67.76;;
76767;Laerm;65707;52.362;6.588;2023-01-01T05:18:03;54.09;37.60;75.84;;
76767;Laerm;65707;52.362;6.588;2023-01-01T05:20:30;50.51;37.11;80.08;;
76767;Laerm;65707;52.362;6.588;2023-01-01T05:22:57;48.19;34.92;70.49;;
76767;Laerm;65707;52.362;6.588;2023-01-01T05:25:24;48.57;35.24;78.47;;
76767;Laerm;65707;52.362;6.588;2023-01-01T05:27:52;51.85;37.04;77.70;;
76767;Laerm;65707;52.362;6.588;2023-01-01T05:30:19;50.37;36.76;74.27;;
76767;Laerm;65707;52.362;6.588;2023-01-01T05:32:45;43.85;36.55;70.18;;
76767;Laerm;65707;52.362;6.588;2023-01-01T05:35:12;47.35;36.28;74.44;;
76767;Laerm;65707;52.362;6.588;2023-01-01T05:37:39;49.57;36.96;70.91;;
76767;Laerm;65707;52.362;6.588;2023-01-01T05:40:07;56.01;36.59;75.67;;
76767;Laerm;65707;52.362;6.588;2023-01-01T05:42:34;49.30;35.73;68.92;;
76767;Laerm;65707;52.362;6.588;2023-01-01T05:45:04;47.22;35.34;71.15;;
76767;Laerm;65707;52.362;6.588;2023-01-01T05:47:30;46.24;35.85;68.86;;
76767;Laerm;65707;52.362;6.588;2023-01-01T05:49:57;44.77;34.66;67.90;;
76767;Laerm;65707;52.362;6.588;2023-01-01T05:52:24;41.51;36.61;55.27;;
76767;Laerm;65707;52.362;6.588;2023-01-01T05:54:51;51.17;36.09;73.74;;
76767;Laerm;65707;52.362;6.588;2023-01-01T05:57:17;46.29;35.98;68.65;;
76767;Laerm;65707;52.362;6.588;2023-01-01T05:59:44;52.99;36.06;84.18;;
76767;Laerm;65707;52.362;6.588;2023-01-01T06:02:12;44.19;36.01;70.32;;
76767;Laerm;65707;52.362;6.588;2023-01-01T06:04:39;44.38;35.85;67.86;;
76767;Laerm;65707;52.362;6.588;2023-01-01T06:07:06;47.64;36.99;67.32;;
76767;Laerm;65707;52.362;6.588;2023-01-01T06:09:33;48.43;36.36;69.31;;
76767;Laerm;65707;52.362;6.588;2023-01-01T06:11:59;58.36;38.43;85.79;;
76767;Laerm;65707;52.362;6.588;2023-01-01T06:14:26;53.55;37.85;79.05;;
76767;Laerm;65707;52.362;6.588;2023-01-01T06:16:53;52.52;37.31;77.77;;
76767;Laerm;65707;52.362;6.588;2023-01-01T06:19:21;50.04;38.07;70.11;;
76767;Laerm;65707;52.362;6.588;2023-01-01T06:21:48;50.16;38.07;74.79;;
76767;Laerm;65707;52.362;6.588;2023-01-01T06:24:15;48.13;37.62;71.58;;
76767;Laerm;65707;52.362;6.588;2023-01-01T06:26:41;58.45;37.74;84.88;;
76767;Laerm;65707;52.362;6.588;2023-01-01T06:29:08;49.54;35.23;75.22;;
76767;Laerm;65707;52.362;6.588;2023-01-01T06:31:35;48.15;36.37;73.07;;
76767;Laerm;65707;52.362;6.588;2023-01-01T06:34:02;46.57;37.16;67.70;;
76767;Laerm;65707;52.362;6.588;2023-01-01T06:36:30;47.08;36.14;65.82;;
76767;Laerm;65707;52.362;6.588;2023-01-01T06:38:57;54.33;37.24;80.15;;
76767;Laerm;65707;52.362;6.588;2023-01-01T06:41:26;52.44;36.86;77.75;;
76767;Laerm;65707;52.362;6.588;2023-01-01T06:43:54;52.86;38.86;72.59;;
76767;Laerm;65707;52.362;6.588;2023-01-01T06:46:25;60.65;39.48;80.38;;
76767;Laerm;65707;52.362;6.588;2023-01-01T06:48:55;62.58;40.13;84.83;;
76767;Laerm;65707;52.362;6.588;2023-01-01T06:51:23;60.67;38.73;86.06;;
76767;Laerm;65707;52.362;6.588;2023-01-01T06:53:52;57.67;41.09;78.80;;
76767;Laerm;65707;52.362;6.588;2023-01-01T06:56:20;59.97;39.50;82.51;;
76767;Laerm;65707;52.362;6.588;2023-01-01T06:58:47;55.48;38.36;80.56;;
76767;Laerm;65707;52.362;6.588;2023-01-01T07:01:15;47.25;36.85;71.14;;
76767;Laerm;65707;52.362;6.588;2023-01-01T07:03:48;48.56;37.42;72.72;;
76767;Laerm;65707;52.362;6.588;2023-01-01T07:06:15;57.42;38.31;79.61;;
76767;Laerm;65707;52.362;6.588;2023-01-01T07:09:02;56.42;39.67;80.74;;
76767;Laerm;65707;52.362;6.588;2023-01-01T07:11:29;51.83;37.37;70.84;;
76767;Laerm;65707;52.362;6.588;2023-01-01T07:13:56;57.55;36.69;74.34;;
76767;Laerm;65707;52.362;6.588;2023-01-01T07:16:24;45.83;36.94;65.57;;
76767;Laerm;65707;52.362;6.588;2023-01-01T07:18:51;50.10;35.88;69.43;;
76767;Laerm;65707;52.362;6.588;2023-01-01T07:21:27;52.78;39.20;79.84;;
76767;Laerm;65707;52.362;6.588;2023-01-01T07:23:55;60.10;39.17;81.16;;
76767;Laerm;65707;52.362;6.588;2023-01-01T07:26:24;54.79;39.02;78.01;;
76767;Laerm;65707;52.362;6.588;2023-01-01T07:28:52;58.98;37.96;81.50;;
76767;Laerm;65707;52.362;6.588;2023-01-01T07:31:19;58.72;38.39;82.50;;
76767;Laerm;65707;52.362;6.588;2023-01-01T07:33:46;48.97;37.62;68.27;;
76767;Laerm;65707;52.362;6.588;2023-01-01T07:36:13;60.48;38.89;87.95;;
76767;Laerm;65707;52.362;6.588;2023-01-01T07:38:40;56.93;41.00;85.35;;
76767;Laerm;65707;52.362;6.588;2023-01-01T07:41:07;61.86;41.82;85.09;;
76767;Laerm;65707;52.362;6.588;2023-01-01T07:43:35;56.22;41.03;76.85;;
76767;Laerm;65707;52.362;6.588;2023-01-01T07:46:02;57.25;39.62;77.97;;
76767;Laerm;65707;52.362;6.588;2023-01-01T07:48:30;57.92;41.23;85.35;;
76767;Laerm;65707;52.362;6.588;2023-01-01T07:50:56;50.11;39.77;68.56;;
76767;Laerm;65707;52.362;6.588;2023-01-01T07:53:23;66.43;41.56;87.70;;
76767;Laerm;65707;52.362;6.588;2023-01-01T07:55:50;60.02;40.05;76.89;;
76767;Laerm;65707;52.362;6.588;2023-01-01T07:58:17;61.11;40.15;87.24;;
76767;Laerm;65707;52.362;6.588;2023-01-01T08:00:46;60.46;43.67;83.02;;
76767;Laerm;65707;52.362;6.588;2023-01-01T08:03:13;53.99;39.32;84.49;;
76767;Laerm;65707;52.362;6.588;2023-01-01T08:05:40;52.34;39.00;76.63;;
76767;Laerm;65707;52.362;6.588;2023-01-01T08:08:08;60.78;40.25;84.87;;
76767;Laerm;65707;52.362;6.588;2023-01-01T08:10:36;59.19;40.15;82.85;;
76767;Laerm;65707;52.362;6.588;2023-01-01T08:13:06;50.57;39.08;73.93;;
76767;Laerm;65707;52.362;6.588;2023-01-01T08:15:34;50.28;37.19;75.19;;
76767;Laerm;65707;52.362;6.588;2023-01-01T08:18:04;62.34;36.92;91.33;;
76767;Laerm;65707;52.362;6.588;2023-01-01T08:20:32;47.88;37.12;71.18;;
76767;Laerm;65707;52.362;6.588;2023-01-01T08:22:59;55.81;39.55;79.77;;
76767;Laerm;65707;52.362;6.588;2023-01-01T08:25:26;56.01;39.67;75.74;;
76767;Laerm;65707;52.362;6.588;2023-01-01T08:27:52;48.40;37.12;74.77;;
76767;Laerm;65707;52.362;6.588;2023-01-01T08:30:19;64.19;39.35;81.28;;
76767;Laerm;65707;52.362;6.588;2023-01-01T08:32:46;51.18;38.12;71.81;;
76767;Laerm;65707;52.362;6.588;2023-01-01T08:35:14;52.92;39.60;74.78;;
76767;Laerm;65707;52.362;6.588;2023-01-01T08:37:41;52.69;40.36;74.73;;
76767;Laerm;65707;52.362;6.588;2023-01-01T08:40:10;58.64;41.08;78.19;;
76767;Laerm;65707;52.362;6.588;2023-01-01T08:42:38;55.25;43.37;81.99;;
76767;Laerm;65707;52.362;6.588;2023-01-01T08:45:06;53.46;43.38;77.43;;
76767;Laerm;65707;52.362;6.588;2023-01-01T08:47:33;59.68;43.00;86.71;;
76767;Laerm;65707;52.362;6.588;2023-01-01T08:50:00;63.81;44.26;80.44;;
76767;Laerm;65707;52.362;6.588;2023-01-01T08:52:29;53.08;42.56;74.85;;
76767;Laerm;65707;52.362;6.588;2023-01-01T08:54:55;55.43;45.64;73.29;;
76767;Laerm;65707;52.362;6.588;2023-01-01T08:57:22;55.50;45.25;74.79;;
76767;Laerm;65707;52.362;6.588;2023-01-01T08:59:49;53.67;39.07;71.16;;
76767;Laerm;65707;52.362;6.588;2023-01-01T09:02:16;50.24;38.36;71.73;;
76767;Laerm;65707;52.362;6.588;2023-01-01T09:04:45;48.92;38.15;67.88;;
76767;Laerm;65707;52.362;6.588;2023-01-01T09:07:12;48.73;36.62;70.29;;
76767;Laerm;65707;52.362;6.588;2023-01-01T09:09:40;63.35;37.95;80.88;;
76767;Laerm;65707;52.362;6.588;2023-01-01T09:12:09;56.53;39.16;79.27;;
76767;Laerm;65707;52.362;6.588;2023-01-01T09:14:39;42.62;36.98;63.32;;
76767;Laerm;65707;52.362;6.588;2023-01-01T09:17:05;59.97;38.85;86.28;;
76767;Laerm;65707;52.362;6.588;2023-01-01T09:19:32;46.34;36.87;66.85;;
76767;Laerm;65707;52.362;6.588;2023-01-01T09:21:59;62.11;38.64;82.34;;
76767;Laerm;65707;52.362;6.588;2023-01-01T09:24:26;55.58;38.61;77.83;;
76767;Laerm;65707;52.362;6.588;2023-01-01T09:26:54;46.57;37.70;68.11;;
76767;Laerm;65707;52.362;6.588;2023-01-01T09:29:21;47.25;36.90;67.24;;
76767;Laerm;65707;52.362;6.588;2023-01-01T09:31:48;53.78;38.30;72.50;;
76767;Laerm;65707;52.362;6.588;2023-01-01T09:34:15;47.39;37.85;70.19;;
76767;Laerm;65707;52.362;6.588;2023-01-01T09:36:43;52.48;39.02;74.99;;
76767;Laerm;65707;52.362;6.588;2023-01-01T09:39:11;54.29;39.14;74.68;;
76767;Laerm;65707;52.362;6.588;2023-01-01T09:42:25;67.27;38.22;82.70;;
76767;Laerm;65707;52.362;6.588;2023-01-01T09:45:13;45.04;38.34;63.55;;
76767;Laerm;65707;52.362;6.588;2023-01-01T09:47:45;47.90;38.06;68.21;;
76767;Laerm;65707;52.362;6.588;2023-01-01T09:50:19;59.25;38.49;78.97;;
76767;Laerm;65707;52.362;6.588;2023-01-01T09:52:53;49.02;39.28;67.94;;
76767;Laerm;65707;52.362;6.588;2023-01-01T09:55:26;47.76;39.10;66.72;;
76767;Laerm;65707;52.362;6.588;2023-01-01T09:57:56;48.50;38.58;76.95;;
76767;Laerm;65707;52.362;6.588;2023-01-01T10:00:23;56.59;39.40;81.38;;
76767;Laerm;65707;52.362;6.588;2023-01-01T10:03:06;52.86;39.73;67.99;;
76767;Laerm;65707;52.362;6.588;2023-01-01T10:05:52;44.79;37.61;62.60;;
76767;Laerm;65707;52.362;6.588;2023-01-01T10:08:42;55.69;39.97;74.86;;
76767;Laerm;65707;52.362;6.588;2023-01-01T10:11:22;62.57;39.49;80.38;;
76767;Laerm;65707;52.362;6.588;2023-01-01T10:13:56;46.89;37.39;65.71;;
76767;Laerm;65707;52.362;6.588;2023-01-01T10:16:33;45.01;38.37;64.24;;
76767;Laerm;65707;52.362;6.588;2023-01-01T10:19:19;66.35;38.77;83.81;;
76767;Laerm;65707;52.362;6.588;2023-01-01T10:21:50;63.91;39.66;83.03;;
76767;Laerm;65707;52.362;6.588;2023-01-01T10:24:36;61.07;38.39;81.64;;
76767;Laerm;65707;52.362;6.588;2023-01-01T10:27:05;48.59;38.66;71.29;;
76767;Laerm;65707;52.362;6.588;2023-01-01T10:29:40;54.42;38.85;73.70;;
76767;Laerm;65707;52.362;6.588;2023-01-01T10:32:17;48.51;39.82;68.09;;
76767;Laerm;65707;52.362;6.588;2023-01-01T10:34:45;54.79;39.88;76.18;;
76767;Laerm;65707;52.362;6.588;2023-01-01T10:37:13;51.97;40.92;76.95;;
76767;Laerm;65707;52.362;6.588;2023-01-01T10:39:42;62.58;39.42;80.63;;
76767;Laerm;65707;52.362;6.588;2023-01-01T10:42:12;45.96;38.46;73.51;;
76767;Laerm;65707;52.362;6.588;2023-01-01T10:44:41;48.53;38.87;69.06;;
76767;Laerm;65707;52.362;6.588;2023-01-01T10:47:23;60.88;40.23;80.13;;
76767;Laerm;65707;52.362;6.588;2023-01-01T10:49:58;62.03;39.34;80.89;;
76767;Laerm;65707;52.362;6.588;2023-01-01T10:52:33;57.33;38.63;76.78;;
76767;Laerm;65707;52.362;6.588;2023-01-01T10:55:01;53.53;39.78;75.51;;
76767;Laerm;65707;52.362;6.588;2023-01-01T10:57:33;54.45;39.79;81.91;;
76767;Laerm;65707;52.362;6.588;2023-01-01T11:00:20;55.85;39.37;74.38;;
76767;Laerm;65707;52.362;6.588;2023-01-01T11:03:12;51.86;39.30;74.42;;
76767;Laerm;65707;52.362;6.588;2023-01-01T11:05:58;52.11;41.84;69.86;;
76767;Laerm;65707;52.362;6.588;2023-01-01T11:08:27;54.94;40.37;73.27;;
76767;Laerm;65707;52.362;6.588;2023-01-01T11:10:58;60.15;41.19;79.00;;
76767;Laerm;65707;52.362;6.588;2023-01-01T11:13:26;47.47;38.76;63.84;;
76767;Laerm;65707;52.362;6.588;2023-01-01T11:15:55;46.15;39.39;69.08;;
76767;Laerm;65707;52.362;6.588;2023-01-01T11:18:27;50.44;38.09;70.29;;
76767;Laerm;65707;52.362;6.588;2023-01-01T11:21:01;59.31;39.40;78.96;;
76767;Laerm;65707;52.362;6.588;2023-01-01T11:23:32;57.43;39.53;76.31;;
76767;Laerm;65707;52.362;6.588;2023-01-01T11:26:04;57.89;38.34;79.97;;
76767;Laerm;65707;52.362;6.588;2023-01-01T11:28:34;50.02;38.88;74.91;;
76767;Laerm;65707;52.362;6.588;2023-01-01T11:31:11;53.56;38.96;72.20;;
76767;Laerm;65707;52.362;6.588;2023-01-01T11:33:45;54.12;39.07;78.12;;
76767;Laerm;65707;52.362;6.588;2023-01-01T11:36:21;50.73;39.55;79.48;;
76767;Laerm;65707;52.362;6.588;2023-01-01T11:39:01;64.43;41.02;81.52;;
76767;Laerm;65707;52.362;6.588;2023-01-01T11:41:44;62.54;40.36;80.22;;
76767;Laerm;65707;52.362;6.588;2023-01-01T11:44:23;51.34;39.36;75.11;;
76767;Laerm;65707;52.362;6.588;2023-01-01T11:46:52;49.19;39.80;69.93;;
76767;Laerm;65707;52.362;6.588;2023-01-01T11:49:24;60.54;40.16;80.96;;
76767;Laerm;65707;52.362;6.588;2023-01-01T11:51:52;46.54;39.02;72.28;;
76767;Laerm;65707;52.362;6.588;2023-01-01T11:54:24;58.30;40.26;80.73;;
76767;Laerm;65707;52.362;6.588;2023-01-01T11:57:05;49.39;40.15;69.15;;
76767;Laerm;65707;52.362;6.588;2023-01-01T11:59:44;55.39;39.62;74.42;;
76767;Laerm;65707;52.362;6.588;2023-01-01T12:02:19;47.53;38.32;65.18;;
76767;Laerm;65707;52.362;6.588;2023-01-01T12:04:58;47.28;40.03;72.44;;
76767;Laerm;65707;52.362;6.588;2023-01-01T12:07:37;51.64;40.19;72.14;;
76767;Laerm;65707;52.362;6.588;2023-01-01T12:10:16;55.85;40.70;74.20;;
76767;Laerm;65707;52.362;6.588;2023-01-01T12:12:50;63.45;41.68;86.85;;
76767;Laerm;65707;52.362;6.588;2023-01-01T12:15:24;52.37;41.67;78.64;;
76767;Laerm;65707;52.362;6.588;2023-01-01T12:18:00;56.42;40.77;86.60;;
76767;Laerm;65707;52.362;6.588;2023-01-01T12:20:33;66.31;40.38;83.73;;
76767;Laerm;65707;52.362;6.588;2023-01-01T12:23:02;54.34;40.82;79.34;;
76767;Laerm;65707;52.362;6.588;2023-01-01T12:25:37;59.48;42.40;81.93;;
76767;Laerm;65707;52.362;6.588;2023-01-01T12:28:23;46.79;39.89;68.63;;
76767;Laerm;65707;52.362;6.588;2023-01-01T12:31:02;53.97;40.45;72.67;;
76767;Laerm;65707;52.362;6.588;2023-01-01T12:33:52;47.53;39.99;68.09;;
76767;Laerm;65707;52.362;6.588;2023-01-01T12:36:36;46.64;39.31;62.33;;
76767;Laerm;65707;52.362;6.588;2023-01-01T12:39:54;53.85;40.33;73.82;;
76767;Laerm;65707;52.362;6.588;2023-01-01T12:42:43;59.65;39.94;79.20;;
76767;Laerm;65707;52.362;6.588;2023-01-01T12:45:52;53.57;40.80;78.91;;
76767;Laerm;65707;52.362;6.588;2023-01-01T12:48:42;52.11;40.62;78.46;;
76767;Laerm;65707;52.362;6.588;2023-01-01T12:51:29;62.43;40.93;83.97;;
76767;Laerm;65707;52.362;6.588;2023-01-01T12:54:15;47.67;40.78;68.24;;
76767;Laerm;65707;52.362;6.588;2023-01-01T12:56:56;46.24;39.67;64.11;;
76767;Laerm;65707;52.362;6.588;2023-01-01T12:59:27;53.33;39.97;71.65;;
76767;Laerm;65707;52.362;6.588;2023-01-01T13:01:59;54.18;40.41;85.95;;
76767;Laerm;65707;52.362;6.588;2023-01-01T13:04:29;48.40;40.06;69.59;;
76767;Laerm;65707;52.362;6.588;2023-01-01T13:07:01;48.61;39.72;70.38;;
76767;Laerm;65707;52.362;6.588;2023-01-01T13:09:34;56.80;41.71;78.08;;
76767;Laerm;65707;52.362;6.588;2023-01-01T13:12:07;61.91;41.27;79.08;;
76767;Laerm;65707;52.362;6.588;2023-01-01T13:14:37;51.93;40.65;82.46;;
76767;Laerm;65707;52.362;6.588;2023-01-01T13:17:17;48.48;40.48;67.52;;
76767;Laerm;65707;52.362;6.588;2023-01-01T13:19:47;61.66;40.87;81.01;;
76767;Laerm;65707;52.362;6.588;2023-01-01T13:22:38;49.25;38.87;76.89;;
76767;Laerm;65707;52.362;6.588;2023-01-01T13:25:20;48.56;40.34;73.67;;
76767;Laerm;65707;52.362;6.588;2023-01-01T13:28:10;48.06;40.31;68.25;;
76767;Laerm;65707;52.362;6.588;2023-01-01T13:30:50;53.85;41.37;71.77;;
76767;Laerm;65707;52.362;6.588;2023-01-01T13:33:22;66.23;40.96;101.12;;
76767;Laerm;65707;52.362;6.588;2023-01-01T13:36:32;55.65;41.35;88.39;;
76767;Laerm;65707;52.362;6.588;2023-01-01T13:38:59;66.55;42.27;89.19;;
76767;Laerm;65707;52.362;6.588;2023-01-01T13:41:39;61.76;42.69;82.26;;
76767;Laerm;65707;52.362;6.588;2023-01-01T13:44:16;63.67;41.57;79.28;;
76767;Laerm;65707;52.362;6.588;2023-01-01T13:47:13;51.65;41.09;73.76;;
76767;Laerm;65707;52.362;6.588;2023-01-01T13:50:03;61.18;40.89;80.28;;
76767;Laerm;65707;52.362;6.588;2023-01-01T13:53:12;61.65;41.53;80.21;;
76767;Laerm;65707;52.362;6.588;2023-01-01T13:56:25;53.79;41.78;84.89;;
76767;Laerm;65707;52.362;6.588;2023-01-01T13:59:32;55.31;42.30;83.51;;
76767;Laerm;65707;52.362;6.588;2023-01-01T14:02:21;48.93;41.47;73.63;;
76767;Laerm;65707;52.362;6.588;2023-01-01T14:04:54;55.77;41.15;89.61;;
76767;Laerm;65707;52.362;6.588;2023-01-01T14:07:34;47.75;41.47;69.71;;
76767;Laerm;65707;52.362;6.588;2023-01-01T14:10:32;60.76;40.86;79.01;;
76767;Laerm;65707;52.362;6.588;2023-01-01T14:13:14;50.67;40.90;70.86;;
76767;Laerm;65707;52.362;6.588;2023-01-01T14:15:52;51.51;40.95;74.73;;